sensor_id;sensor_type;location;lat;lon;timestamp;pressure;altitude;pressure_sealevel;temperature;humidity
47280;BME280;34064;44.942;0.008;2023-04-27T00:02:13;98681.56;;;18.45;63.66
47280;BME280;34064;44.942;0.008;2023-04-27T00:04:40;98677.53;;;18.40;63.58
47280;BME280;34064;44.942;0.008;2023-04-27T00:07:07;98686.28;;;18.34;63.74
47280;BME280;34064;44.942;0.008;2023-04-27T00:09:34;98683.09;;;18.31;63.53
47280;BME280;34064;44.942;0.008;2023-04-27T00:12:00;98696.19;;;18.26;63.48
47280;BME280;34064;44.942;0.008;2023-04-27T00:14:27;98705.78;;;18.20;63.55
47280;BME280;34064;44.942;0.008;2023-04-27T00:16:54;98707.78;;;18.09;63.46
47280;BME280;34064;44.942;0.008;2023-04-27T00:19:21;98712.00;;;18.04;63.55
47280;BME280;34064;44.942;0.008;2023-04-27T00:21:48;98710.47;;;18.01;63.49
47280;BME280;34064;44.942;0.008;2023-04-27T00:24:14;98705.09;;;18.01;63.72
47280;BME280;34064;44.942;0.008;2023-04-27T00:26:40;98699.91;;;18.00;63.53
47280;BME280;34064;44.942;0.008;2023-04-27T00:29:07;98700.09;;;17.98;63.45
47280;BME280;34064;44.942;0.008;2023-04-27T00:31:33;98701.09;;;17.97;63.55
47280;BME280;34064;44.942;0.008;2023-04-27T00:34:00;98700.69;;;17.92;63.36
47280;BME280;34064;44.942;0.008;2023-04-27T00:36:26;98699.03;;;17.91;63.34
47280;BME280;34064;44.942;0.008;2023-04-27T00:38:53;98694.00;;;17.88;63.45
47280;BME280;34064;44.942;0.008;2023-04-27T00:41:19;98693.31;;;17.86;63.61
47280;BME280;34064;44.942;0.008;2023-04-27T00:43:46;98687.28;;;17.84;63.72
47280;BME280;34064;44.942;0.008;2023-04-27T00:46:13;98685.59;;;17.83;63.54
47280;BME280;34064;44.942;0.008;2023-04-27T00:48:40;98679.38;;;17.82;63.49
47280;BME280;34064;44.942;0.008;2023-04-27T00:51:08;98677.53;;;17.83;63.60
47280;BME280;34064;44.942;0.008;2023-04-27T00:53:36;98676.03;;;17.80;63.82
47280;BME280;34064;44.942;0.008;2023-04-27T00:56:06;98676.69;;;17.82;63.78
47280;BME280;34064;44.942;0.008;2023-04-27T00:58:32;98676.84;;;17.81;63.79
47280;BME280;34064;44.942;0.008;2023-04-27T01:00:59;98679.22;;;17.75;63.93
47280;BME280;34064;44.942;0.008;2023-04-27T01:03:26;98676.19;;;17.70;63.92
47280;BME280;34064;44.942;0.008;2023-04-27T01:05:53;98686.25;;;17.68;63.82
47280;BME280;34064;44.942;0.008;2023-04-27T01:08:19;98692.97;;;17.64;63.85
47280;BME280;34064;44.942;0.008;2023-04-27T01:10:45;98678.53;;;17.65;63.51
47280;BME280;34064;44.942;0.008;2023-04-27T01:13:14;98669.78;;;17.63;63.51
47280;BME280;34064;44.942;0.008;2023-04-27T01:15:41;98670.97;;;17.60;63.71
47280;BME280;34064;44.942;0.008;2023-04-27T01:18:07;98682.88;;;17.58;63.63
47280;BME280;34064;44.942;0.008;2023-04-27T01:20:34;98665.09;;;17.57;63.61
47280;BME280;34064;44.942;0.008;2023-04-27T01:23:01;98660.72;;;17.56;63.62
47280;BME280;34064;44.942;0.008;2023-04-27T01:25:28;98663.41;;;17.56;63.64
47280;BME280;34064;44.942;0.008;2023-04-27T01:27:54;98657.03;;;17.57;63.62
47280;BME280;34064;44.942;0.008;2023-04-27T01:30:21;98653.16;;;17.59;63.57
47280;BME280;34064;44.942;0.008;2023-04-27T01:32:48;98656.72;;;17.60;63.64
47280;BME280;34064;44.942;0.008;2023-04-27T01:35:15;98654.16;;;17.58;63.73
47280;BME280;34064;44.942;0.008;2023-04-27T01:37:41;98649.97;;;17.56;63.79
47280;BME280;34064;44.942;0.008;2023-04-27T01:40:08;98649.97;;;17.56;63.87
47280;BME280;34064;44.942;0.008;2023-04-27T01:42:34;98647.28;;;17.56;63.64
47280;BME280;34064;44.942;0.008;2023-04-27T01:45:01;98646.13;;;17.58;63.62
47280;BME280;34064;44.942;0.008;2023-04-27T01:47:27;98652.34;;;17.59;63.65
47280;BME280;34064;44.942;0.008;2023-04-27T01:49:54;98657.34;;;17.54;63.56
47280;BME280;34064;44.942;0.008;2023-04-27T01:52:20;98660.03;;;17.45;63.43
47280;BME280;34064;44.942;0.008;2023-04-27T01:54:47;98664.06;;;17.33;63.79
47280;BME280;34064;44.942;0.008;2023-04-27T01:57:13;98662.19;;;17.34;63.77
47280;BME280;34064;44.942;0.008;2023-04-27T01:59:39;98656.00;;;17.33;63.57
47280;BME280;34064;44.942;0.008;2023-04-27T02:02:06;98652.28;;;17.34;63.61
47280;BME280;34064;44.942;0.008;2023-04-27T02:04:32;98644.91;;;17.36;63.52
47280;BME280;34064;44.942;0.008;2023-04-27T02:06:58;98645.59;;;17.38;63.38
47280;BME280;34064;44.942;0.008;2023-04-27T02:09:25;98643.22;;;17.35;63.58
47280;BME280;34064;44.942;0.008;2023-04-27T02:11:51;98648.94;;;17.32;63.70
47280;BME280;34064;44.942;0.008;2023-04-27T02:14:18;98644.91;;;17.28;63.78
47280;BME280;34064;44.942;0.008;2023-04-27T02:16:44;98645.91;;;17.27;63.56
47280;BME280;34064;44.942;0.008;2023-04-27T02:19:11;98645.91;;;17.27;63.58
47280;BME280;34064;44.942;0.008;2023-04-27T02:21:39;98647.59;;;17.28;63.55
47280;BME280;34064;44.942;0.008;2023-04-27T02:24:07;98646.59;;;17.29;63.75
47280;BME280;34064;44.942;0.008;2023-04-27T02:26:34;98639.53;;;17.28;63.52
47280;BME280;34064;44.942;0.008;2023-04-27T02:29:01;98641.91;;;17.31;63.46
47280;BME280;34064;44.942;0.008;2023-04-27T02:31:29;98640.91;;;17.32;63.52
47280;BME280;34064;44.942;0.008;2023-04-27T02:33:56;98642.59;;;17.33;63.55
47280;BME280;34064;44.942;0.008;2023-04-27T02:36:23;98637.22;;;17.33;63.51
47280;BME280;34064;44.942;0.008;2023-04-27T02:38:50;98647.94;;;17.33;63.64
47280;BME280;34064;44.942;0.008;2023-04-27T02:41:16;98654.47;;;17.30;63.49
47280;BME280;34064;44.942;0.008;2023-04-27T02:43:43;98655.31;;;17.23;63.54
47280;BME280;34064;44.942;0.008;2023-04-27T02:46:12;98654.44;;;17.14;63.97
47280;BME280;34064;44.942;0.008;2023-04-27T02:48:39;98658.97;;;17.13;63.88
47280;BME280;34064;44.942;0.008;2023-04-27T02:51:07;98657.94;;;17.14;63.74
47280;BME280;34064;44.942;0.008;2023-04-27T02:53:34;98666.00;;;17.14;64.10
47280;BME280;34064;44.942;0.008;2023-04-27T02:56:02;98655.25;;;17.14;63.92
47280;BME280;34064;44.942;0.008;2023-04-27T02:58:29;98653.59;;;17.13;63.93
47280;BME280;34064;44.942;0.008;2023-04-27T03:00:56;98658.63;;;17.17;63.85
47280;BME280;34064;44.942;0.008;2023-04-27T03:03:23;98655.94;;;17.17;63.91
47280;BME280;34064;44.942;0.008;2023-04-27T03:05:51;98656.63;;;17.19;63.93
47280;BME280;34064;44.942;0.008;2023-04-27T03:08:18;98656.63;;;17.19;64.05
47280;BME280;34064;44.942;0.008;2023-04-27T03:10:45;98665.69;;;17.18;63.99
47280;BME280;34064;44.942;0.008;2023-04-27T03:13:12;98659.81;;;17.14;64.37
47280;BME280;34064;44.942;0.008;2023-04-27T03:15:40;98656.94;;;17.15;64.11
47280;BME280;34064;44.942;0.008;2023-04-27T03:18:07;98649.56;;;17.18;64.05
47280;BME280;34064;44.942;0.008;2023-04-27T03:20:33;98649.56;;;17.18;64.13
47280;BME280;34064;44.942;0.008;2023-04-27T03:23:00;98652.94;;;17.20;64.14
47280;BME280;34064;44.942;0.008;2023-04-27T03:25:27;98643.03;;;17.20;64.18
47280;BME280;34064;44.942;0.008;2023-04-27T03:27:54;98642.03;;;17.21;64.34
47280;BME280;34064;44.942;0.008;2023-04-27T03:30:22;98631.97;;;17.23;64.24
47280;BME280;34064;44.942;0.008;2023-04-27T03:32:49;98617.38;;;17.26;64.23
47280;BME280;34064;44.942;0.008;2023-04-27T03:35:16;98614.38;;;17.29;64.21
47280;BME280;34064;44.942;0.008;2023-04-27T03:37:43;98613.56;;;17.28;64.19
47280;BME280;34064;44.942;0.008;2023-04-27T03:40:12;98609.00;;;17.29;64.33
47280;BME280;34064;44.942;0.008;2023-04-27T03:42:39;98600.94;;;17.29;64.53
47280;BME280;34064;44.942;0.008;2023-04-27T03:45:07;98602.63;;;17.30;64.47
47280;BME280;34064;44.942;0.008;2023-04-27T03:47:34;98616.38;;;17.27;64.53
47280;BME280;34064;44.942;0.008;2023-04-27T03:50:01;98609.69;;;17.23;64.38
47280;BME280;34064;44.942;0.008;2023-04-27T03:52:28;98618.22;;;17.18;64.69
47280;BME280;34064;44.942;0.008;2023-04-27T03:54:54;98631.78;;;17.17;64.77
47280;BME280;34064;44.942;0.008;2023-04-27T03:57:21;98633.78;;;17.14;64.41
47280;BME280;34064;44.942;0.008;2023-04-27T03:59:48;98634.66;;;17.15;64.50
47280;BME280;34064;44.942;0.008;2023-04-27T04:02:16;98625.75;;;17.14;64.71
47280;BME280;34064;44.942;0.008;2023-04-27T04:04:43;98628.09;;;17.18;64.51
47280;BME280;34064;44.942;0.008;2023-04-27T04:07:09;98625.28;;;17.19;64.50
47280;BME280;34064;44.942;0.008;2023-04-27T04:09:37;98618.72;;;17.22;64.61
47280;BME280;34064;44.942;0.008;2023-04-27T04:12:04;98612.38;;;17.23;64.63
47280;BME280;34064;44.942;0.008;2023-04-27T04:14:31;98604.13;;;17.24;64.38
47280;BME280;34064;44.942;0.008;2023-04-27T04:16:57;98608.31;;;17.27;64.39
47280;BME280;34064;44.942;0.008;2023-04-27T04:19:24;98600.28;;;17.27;64.55
47280;BME280;34064;44.942;0.008;2023-04-27T04:21:51;98600.94;;;17.29;64.24
47280;BME280;34064;44.942;0.008;2023-04-27T04:24:19;98598.28;;;17.29;64.33
47280;BME280;34064;44.942;0.008;2023-04-27T04:26:46;98602.97;;;17.27;65.22
47280;BME280;34064;44.942;0.008;2023-04-27T04:29:13;98606.50;;;17.27;64.70
47280;BME280;34064;44.942;0.008;2023-04-27T04:31:40;98606.66;;;17.26;64.85
47280;BME280;34064;44.942;0.008;2023-04-27T04:34:07;98606.50;;;17.27;64.65
47280;BME280;34064;44.942;0.008;2023-04-27T04:36:33;98602.81;;;17.28;64.67
47280;BME280;34064;44.942;0.008;2023-04-27T04:39:01;98599.28;;;17.28;64.66
47280;BME280;34064;44.942;0.008;2023-04-27T04:41:28;98602.47;;;17.31;64.60
47280;BME280;34064;44.942;0.008;2023-04-27T04:43:54;98588.03;;;17.33;64.54
47280;BME280;34064;44.942;0.008;2023-04-27T04:46:21;98587.03;;;17.34;64.74
47280;BME280;34064;44.942;0.008;2023-04-27T04:48:49;98585.84;;;17.36;64.38
47280;BME280;34064;44.942;0.008;2023-04-27T04:51:16;98584.84;;;17.37;64.47
47280;BME280;34064;44.942;0.008;2023-04-27T04:53:42;98571.44;;;17.37;64.54
47280;BME280;34064;44.942;0.008;2023-04-27T04:56:13;98574.13;;;17.37;64.75
47280;BME280;34064;44.942;0.008;2023-04-27T04:58:39;98572.09;;;17.39;64.53
47280;BME280;34064;44.942;0.008;2023-04-27T05:01:06;98565.06;;;17.38;65.14
47280;BME280;34064;44.942;0.008;2023-04-27T05:03:33;98575.78;;;17.38;65.25
47280;BME280;34064;44.942;0.008;2023-04-27T05:05:59;98578.31;;;17.40;64.94
47280;BME280;34064;44.942;0.008;2023-04-27T05:08:26;98565.72;;;17.40;65.05
47280;BME280;34064;44.942;0.008;2023-04-27T05:10:57;98572.78;;;17.41;64.98
47280;BME280;34064;44.942;0.008;2023-04-27T05:13:27;98569.09;;;17.42;65.07
47280;BME280;34064;44.942;0.008;2023-04-27T05:15:55;98566.41;;;17.42;65.15
47280;BME280;34064;44.942;0.008;2023-04-27T05:18:22;98569.09;;;17.42;65.39
47280;BME280;34064;44.942;0.008;2023-04-27T05:20:48;98571.59;;;17.44;65.06
47280;BME280;34064;44.942;0.008;2023-04-27T05:23:17;98567.06;;;17.44;65.54
47280;BME280;34064;44.942;0.008;2023-04-27T05:25:47;98571.44;;;17.45;65.35
47280;BME280;34064;44.942;0.008;2023-04-27T05:28:14;98569.75;;;17.44;65.36
47280;BME280;34064;44.942;0.008;2023-04-27T05:30:41;98583.84;;;17.38;66.05
47280;BME280;34064;44.942;0.008;2023-04-27T05:33:08;98586.53;;;17.38;65.90
47280;BME280;34064;44.942;0.008;2023-04-27T05:35:48;98582.00;;;17.39;65.82
47280;BME280;34064;44.942;0.008;2023-04-27T05:38:24;98585.53;;;17.39;65.88
47280;BME280;34064;44.942;0.008;2023-04-27T05:40:57;98577.47;;;17.39;65.78
47280;BME280;34064;44.942;0.008;2023-04-27T05:43:25;98572.78;;;17.41;65.75
47280;BME280;34064;44.942;0.008;2023-04-27T05:45:52;98575.97;;;17.45;65.87
47280;BME280;34064;44.942;0.008;2023-04-27T05:48:18;98583.84;;;17.46;65.71
47280;BME280;34064;44.942;0.008;2023-04-27T05:50:45;98582.84;;;17.48;66.08
47280;BME280;34064;44.942;0.008;2023-04-27T05:53:12;98575.28;;;17.51;65.45
47280;BME280;34064;44.942;0.008;2023-04-27T05:55:38;98564.38;;;17.53;65.43
47280;BME280;34064;44.942;0.008;2023-04-27T05:58:06;98571.41;;;17.54;65.72
47280;BME280;34064;44.942;0.008;2023-04-27T06:00:33;98586.38;;;17.56;65.50
47280;BME280;34064;44.942;0.008;2023-04-27T06:02:59;98581.00;;;17.56;65.77
47280;BME280;34064;44.942;0.008;2023-04-27T06:05:26;98568.41;;;17.57;65.70
47280;BME280;34064;44.942;0.008;2023-04-27T06:07:53;98560.84;;;17.60;65.65
47280;BME280;34064;44.942;0.008;2023-04-27T06:10:19;98565.72;;;17.65;65.80
47280;BME280;34064;44.942;0.008;2023-04-27T06:12:46;98562.53;;;17.70;65.68
47280;BME280;34064;44.942;0.008;2023-04-27T06:15:12;98561.00;;;17.75;65.89
47280;BME280;34064;44.942;0.008;2023-04-27T06:17:39;98554.94;;;17.82;65.61
47280;BME280;34064;44.942;0.008;2023-04-27T06:20:06;98563.19;;;17.88;65.66
47280;BME280;34064;44.942;0.008;2023-04-27T06:22:33;98560.97;;;17.92;65.88
47280;BME280;34064;44.942;0.008;2023-04-27T06:25:00;98565.72;;;17.98;65.92
47280;BME280;34064;44.942;0.008;2023-04-27T06:27:26;98559.97;;;18.01;65.94
47280;BME280;34064;44.942;0.008;2023-04-27T06:29:52;98559.47;;;18.06;65.71
47280;BME280;34064;44.942;0.008;2023-04-27T06:32:19;98556.13;;;18.12;65.97
47280;BME280;34064;44.942;0.008;2023-04-27T06:34:46;98551.38;;;18.22;65.53
47280;BME280;34064;44.942;0.008;2023-04-27T06:37:12;98555.19;;;18.28;65.54
47280;BME280;34064;44.942;0.008;2023-04-27T06:39:40;98556.22;;;18.35;65.56
47280;BME280;34064;44.942;0.008;2023-04-27T06:42:07;98549.31;;;18.41;65.84
47280;BME280;34064;44.942;0.008;2023-04-27T06:44:40;98539.66;;;18.47;65.74
47280;BME280;34064;44.942;0.008;2023-04-27T06:47:15;98540.00;;;18.52;65.76
47280;BME280;34064;44.942;0.008;2023-04-27T06:49:41;98538.47;;;18.58;66.07
47280;BME280;34064;44.942;0.008;2023-04-27T06:52:07;98535.25;;;18.62;65.95
47280;BME280;34064;44.942;0.008;2023-04-27T06:54:34;98529.19;;;18.60;66.14
47280;BME280;34064;44.942;0.008;2023-04-27T06:57:01;98518.75;;;18.65;65.94
47280;BME280;34064;44.942;0.008;2023-04-27T06:59:28;98513.50;;;18.72;65.92
47280;BME280;34064;44.942;0.008;2023-04-27T07:01:55;98507.91;;;18.82;66.24
47280;BME280;34064;44.942;0.008;2023-04-27T07:04:21;98508.03;;;18.89;66.11
47280;BME280;34064;44.942;0.008;2023-04-27T07:06:48;98501.41;;;18.99;66.08
47280;BME280;34064;44.942;0.008;2023-04-27T07:09:15;98499.66;;;19.07;66.27
47280;BME280;34064;44.942;0.008;2023-04-27T07:11:41;98495.44;;;19.12;66.29
47280;BME280;34064;44.942;0.008;2023-04-27T07:14:07;98496.75;;;19.16;66.23
47280;BME280;34064;44.942;0.008;2023-04-27T07:16:34;98501.59;;;19.21;66.28
47280;BME280;34064;44.942;0.008;2023-04-27T07:19:00;98506.59;;;19.24;66.31
47280;BME280;34064;44.942;0.008;2023-04-27T07:21:27;98506.59;;;19.24;66.34
47280;BME280;34064;44.942;0.008;2023-04-27T07:23:54;98502.53;;;19.28;66.65
47280;BME280;34064;44.942;0.008;2023-04-27T07:26:20;98509.72;;;19.36;66.56
47280;BME280;34064;44.942;0.008;2023-04-27T07:28:50;98504.06;;;19.46;66.46
47280;BME280;34064;44.942;0.008;2023-04-27T07:31:16;98504.19;;;19.53;66.49
47280;BME280;34064;44.942;0.008;2023-04-27T07:33:43;98497.22;;;19.58;66.14
47280;BME280;34064;44.942;0.008;2023-04-27T07:36:09;98494.16;;;19.61;66.37
47280;BME280;34064;44.942;0.008;2023-04-27T07:38:36;98490.75;;;19.68;66.34
47280;BME280;34064;44.942;0.008;2023-04-27T07:41:03;98487.69;;;19.86;66.30
47280;BME280;34064;44.942;0.008;2023-04-27T07:43:33;98479.63;;;20.01;66.11
47280;BME280;34064;44.942;0.008;2023-04-27T07:46:00;98478.13;;;20.13;66.19
47280;BME280;34064;44.942;0.008;2023-04-27T07:48:27;98478.69;;;20.23;66.10
47280;BME280;34064;44.942;0.008;2023-04-27T07:50:54;98467.78;;;20.32;66.01
47280;BME280;34064;44.942;0.008;2023-04-27T07:53:20;98463.97;;;20.41;65.72
47280;BME280;34064;44.942;0.008;2023-04-27T07:55:46;98453.69;;;20.51;65.55
47280;BME280;34064;44.942;0.008;2023-04-27T07:58:13;98447.09;;;20.54;65.34
47280;BME280;34064;44.942;0.008;2023-04-27T08:00:39;98439.44;;;20.57;65.25
47280;BME280;34064;44.942;0.008;2023-04-27T08:03:05;98441.97;;;20.59;65.53
47280;BME280;34064;44.942;0.008;2023-04-27T08:05:32;98437.63;;;20.65;65.03
47280;BME280;34064;44.942;0.008;2023-04-27T08:07:59;98451.41;;;20.70;65.14
47280;BME280;34064;44.942;0.008;2023-04-27T08:10:25;98450.66;;;20.76;65.11
47280;BME280;34064;44.942;0.008;2023-04-27T08:12:52;98444.75;;;20.87;65.06
47280;BME280;34064;44.942;0.008;2023-04-27T08:15:19;98441.09;;;20.95;64.85
47280;BME280;34064;44.942;0.008;2023-04-27T08:17:45;98435.16;;;21.07;64.62
47280;BME280;34064;44.942;0.008;2023-04-27T08:20:12;98434.84;;;21.16;64.30
47280;BME280;34064;44.942;0.008;2023-04-27T08:22:41;98436.97;;;21.21;64.14
47280;BME280;34064;44.942;0.008;2023-04-27T08:25:08;98443.06;;;21.30;63.63
47280;BME280;34064;44.942;0.008;2023-04-27T08:27:38;98440.84;;;21.40;63.68
47280;BME280;34064;44.942;0.008;2023-04-27T08:30:06;98438.38;;;21.45;63.74
47280;BME280;34064;44.942;0.008;2023-04-27T08:32:32;98433.44;;;21.49;63.56
47280;BME280;34064;44.942;0.008;2023-04-27T08:34:59;98433.84;;;21.53;63.30
47280;BME280;34064;44.942;0.008;2023-04-27T08:37:25;98429.34;;;21.60;63.11
47280;BME280;34064;44.942;0.008;2023-04-27T08:39:52;98429.63;;;21.65;63.15
47280;BME280;34064;44.942;0.008;2023-04-27T08:42:18;98422.38;;;21.72;63.06
47280;BME280;34064;44.942;0.008;2023-04-27T08:44:44;98412.84;;;21.83;63.02
47280;BME280;34064;44.942;0.008;2023-04-27T08:47:11;98414.56;;;21.91;62.52
47280;BME280;34064;44.942;0.008;2023-04-27T08:49:38;98409.19;;;21.97;62.30
47280;BME280;34064;44.942;0.008;2023-04-27T08:52:14;98412.56;;;22.06;62.13
47280;BME280;34064;44.942;0.008;2023-04-27T08:54:40;98408.22;;;22.12;61.97
47280;BME280;34064;44.942;0.008;2023-04-27T08:57:11;98407.22;;;22.20;62.06
47280;BME280;34064;44.942;0.008;2023-04-27T08:59:38;98408.28;;;22.25;61.39
47280;BME280;34064;44.942;0.008;2023-04-27T09:02:05;98406.38;;;22.26;61.56
47280;BME280;34064;44.942;0.008;2023-04-27T09:04:38;98396.84;;;22.30;61.37
47280;BME280;34064;44.942;0.008;2023-04-27T09:07:16;98393.09;;;22.31;61.51
47280;BME280;34064;44.942;0.008;2023-04-27T09:09:43;98399.34;;;22.32;61.41
47280;BME280;34064;44.942;0.008;2023-04-27T09:12:28;98402.69;;;22.34;61.32
47280;BME280;34064;44.942;0.008;2023-04-27T09:14:58;98393.31;;;22.36;61.61
47280;BME280;34064;44.942;0.008;2023-04-27T09:17:28;98392.72;;;22.41;61.58
47280;BME280;34064;44.942;0.008;2023-04-27T09:20:11;98405.00;;;22.43;61.38
47280;BME280;34064;44.942;0.008;2023-04-27T09:22:45;98400.88;;;22.48;61.54
47280;BME280;34064;44.942;0.008;2023-04-27T09:25:31;98405.25;;;22.49;61.12
47280;BME280;34064;44.942;0.008;2023-04-27T09:27:59;98401.50;;;22.50;60.87
47280;BME280;34064;44.942;0.008;2023-04-27T09:30:27;98404.41;;;22.55;60.56
47280;BME280;34064;44.942;0.008;2023-04-27T09:32:56;98412.34;;;22.50;60.46
47280;BME280;34064;44.942;0.008;2023-04-27T09:35:25;98412.53;;;22.48;60.43
47280;BME280;34064;44.942;0.008;2023-04-27T09:37:52;98419.81;;;22.48;61.02
47280;BME280;34064;44.942;0.008;2023-04-27T09:40:22;98418.13;;;22.47;60.91
47280;BME280;34064;44.942;0.008;2023-04-27T09:42:59;98409.00;;;22.54;60.77
47280;BME280;34064;44.942;0.008;2023-04-27T09:45:29;98416.50;;;22.59;60.61
47280;BME280;34064;44.942;0.008;2023-04-27T09:47:57;98419.00;;;22.61;60.65
47280;BME280;34064;44.942;0.008;2023-04-27T09:50:24;98421.09;;;22.65;60.54
47280;BME280;34064;44.942;0.008;2023-04-27T09:52:50;98421.34;;;22.70;60.32
47280;BME280;34064;44.942;0.008;2023-04-27T09:55:21;98420.72;;;22.75;60.39
47280;BME280;34064;44.942;0.008;2023-04-27T10:09:15;98414.06;;;23.04;59.89
47280;BME280;34064;44.942;0.008;2023-04-27T10:11:49;98398.00;;;23.16;59.34
47280;BME280;34064;44.942;0.008;2023-04-27T10:14:18;98390.34;;;23.27;59.40
47280;BME280;34064;44.942;0.008;2023-04-27T10:16:55;98381.78;;;23.36;59.39
47280;BME280;34064;44.942;0.008;2023-04-27T10:19:23;98384.47;;;23.50;59.09
47280;BME280;34064;44.942;0.008;2023-04-27T10:22:00;98382.56;;;23.57;59.08
47280;BME280;34064;44.942;0.008;2023-04-27T10:24:40;98380.25;;;23.67;58.69
47280;BME280;34064;44.942;0.008;2023-04-27T10:27:16;98371.44;;;23.86;58.42
47280;BME280;34064;44.942;0.008;2023-04-27T10:29:48;98374.09;;;24.06;58.07
47280;BME280;34064;44.942;0.008;2023-04-27T10:32:20;98356.72;;;24.20;57.12
47280;BME280;34064;44.942;0.008;2023-04-27T10:35:01;98358.31;;;24.28;57.49
47280;BME280;34064;44.942;0.008;2023-04-27T10:37:38;98353.31;;;24.32;56.46
47280;BME280;34064;44.942;0.008;2023-04-27T10:40:12;98356.16;;;24.43;56.37
47280;BME280;34064;44.942;0.008;2023-04-27T10:42:44;98363.16;;;24.58;56.41
47280;BME280;34064;44.942;0.008;2023-04-27T10:45:11;98352.03;;;24.66;56.09
47280;BME280;34064;44.942;0.008;2023-04-27T10:47:41;98340.44;;;24.84;55.79
47280;BME280;34064;44.942;0.008;2023-04-27T10:50:09;98326.09;;;25.02;55.29
47280;BME280;34064;44.942;0.008;2023-04-27T10:52:41;98324.13;;;25.10;55.14
47280;BME280;34064;44.942;0.008;2023-04-27T10:55:21;98311.53;;;25.15;54.15
47280;BME280;34064;44.942;0.008;2023-04-27T10:57:49;98317.69;;;25.04;54.04
47280;BME280;34064;44.942;0.008;2023-04-27T11:00:28;98325.41;;;25.07;54.67
47280;BME280;34064;44.942;0.008;2023-04-27T11:03:08;98327.50;;;25.05;54.13
47280;BME280;34064;44.942;0.008;2023-04-27T11:05:36;98334.44;;;25.01;54.30
47280;BME280;34064;44.942;0.008;2023-04-27T11:08:10;98341.75;;;25.00;54.34
47280;BME280;34064;44.942;0.008;2023-04-27T11:10:45;98343.47;;;24.95;54.72
47280;BME280;34064;44.942;0.008;2023-04-27T11:13:14;98335.72;;;24.98;54.50
47280;BME280;34064;44.942;0.008;2023-04-27T11:15:51;98335.72;;;24.98;54.45
47280;BME280;34064;44.942;0.008;2023-04-27T11:18:23;98331.91;;;25.06;53.98
47280;BME280;34064;44.942;0.008;2023-04-27T11:21:33;98332.94;;;25.05;54.25
47280;BME280;34064;44.942;0.008;2023-04-27T11:23:41;98335.66;;;25.05;53.68
47280;BME280;34064;44.942;0.008;2023-04-27T11:26:16;98331.84;;;25.13;53.97
47280;BME280;34064;44.942;0.008;2023-04-27T11:28:44;98332.38;;;25.21;54.01
47280;BME280;34064;44.942;0.008;2023-04-27T11:31:14;98321.66;;;25.27;53.22
47280;BME280;34064;44.942;0.008;2023-04-27T11:33:47;98320.75;;;25.33;53.22
47280;BME280;34064;44.942;0.008;2023-04-27T11:36:19;98331.75;;;25.45;53.30
47280;BME280;34064;44.942;0.008;2023-04-27T11:38:46;98320.94;;;25.57;53.13
47280;BME280;34064;44.942;0.008;2023-04-27T11:41:12;98306.50;;;25.75;52.51
47280;BME280;34064;44.942;0.008;2023-04-27T11:43:43;98303.53;;;25.76;52.02
47280;BME280;34064;44.942;0.008;2023-04-27T11:46:14;98303.84;;;25.87;51.80
47280;BME280;34064;44.942;0.008;2023-04-27T11:48:40;98299.91;;;26.01;51.26
47280;BME280;34064;44.942;0.008;2023-04-27T11:51:10;98309.03;;;26.07;51.88
47280;BME280;34064;44.942;0.008;2023-04-27T11:53:40;98305.16;;;26.14;51.54
47280;BME280;34064;44.942;0.008;2023-04-27T11:56:10;98305.53;;;26.18;51.23
47280;BME280;34064;44.942;0.008;2023-04-27T11:58:37;98310.41;;;26.16;50.84
47280;BME280;34064;44.942;0.008;2023-04-27T12:01:05;98300.78;;;26.13;50.48
47280;BME280;34064;44.942;0.008;2023-04-27T12:03:32;98294.28;;;26.14;51.30
47280;BME280;34064;44.942;0.008;2023-04-27T12:05:58;98282.00;;;26.24;50.60
47280;BME280;34064;44.942;0.008;2023-04-27T12:08:25;98281.09;;;26.30;49.83
47280;BME280;34064;44.942;0.008;2023-04-27T12:10:52;98283.69;;;26.37;50.19
47280;BME280;34064;44.942;0.008;2023-04-27T12:13:18;98296.28;;;26.50;49.69
47280;BME280;34064;44.942;0.008;2023-04-27T12:15:44;98290.94;;;26.43;49.50
47280;BME280;34064;44.942;0.008;2023-04-27T12:18:11;98289.75;;;26.39;50.05
47280;BME280;34064;44.942;0.008;2023-04-27T12:20:37;98277.22;;;26.50;50.15
47280;BME280;34064;44.942;0.008;2023-04-27T12:23:04;98272.50;;;26.69;49.27
47280;BME280;34064;44.942;0.008;2023-04-27T12:25:30;98273.38;;;26.81;48.90
47280;BME280;34064;44.942;0.008;2023-04-27T12:27:57;98269.59;;;26.94;48.57
47280;BME280;34064;44.942;0.008;2023-04-27T12:30:23;98260.09;;;27.08;48.23
47280;BME280;34064;44.942;0.008;2023-04-27T12:32:50;98254.16;;;27.12;48.49
47280;BME280;34064;44.942;0.008;2023-04-27T12:35:16;98239.69;;;27.23;48.65
47280;BME280;34064;44.942;0.008;2023-04-27T12:37:43;98255.13;;;27.17;49.08
47280;BME280;34064;44.942;0.008;2023-04-27T12:40:10;98263.75;;;27.14;48.32
47280;BME280;34064;44.942;0.008;2023-04-27T12:42:36;98271.72;;;27.04;48.33
47280;BME280;34064;44.942;0.008;2023-04-27T12:45:03;98278.81;;;26.93;48.40
47280;BME280;34064;44.942;0.008;2023-04-27T12:47:29;98273.38;;;26.93;48.69
47280;BME280;34064;44.942;0.008;2023-04-27T12:49:57;98276.69;;;26.95;48.07
47280;BME280;34064;44.942;0.008;2023-04-27T12:52:23;98276.69;;;26.95;47.77
47280;BME280;34064;44.942;0.008;2023-04-27T12:54:49;98270.63;;;27.05;48.23
47280;BME280;34064;44.942;0.008;2023-04-27T12:57:22;98263.28;;;27.17;48.30
47280;BME280;34064;44.942;0.008;2023-04-27T12:59:49;98270.38;;;27.30;48.13
47280;BME280;34064;44.942;0.008;2023-04-27T13:02:16;98258.28;;;27.50;47.09
47280;BME280;34064;44.942;0.008;2023-04-27T13:04:42;98262.41;;;27.40;46.73
47280;BME280;34064;44.942;0.008;2023-04-27T13:07:09;98266.59;;;27.43;46.50
47280;BME280;34064;44.942;0.008;2023-04-27T13:09:35;98260.38;;;27.60;46.83
47280;BME280;34064;44.942;0.008;2023-04-27T13:12:02;98254.16;;;27.76;46.74
47280;BME280;34064;44.942;0.008;2023-04-27T13:14:28;98247.66;;;27.94;46.42
47280;BME280;34064;44.942;0.008;2023-04-27T13:16:55;98239.34;;;28.01;46.01